sensor_id;sensor_type;location;lat;lon;timestamp;temperature;humidity
16827;DHT22;8530;49.540;8.576;2022-08-19T00:00:50;22.30;61.10
16827;DHT22;8530;49.540;8.576;2022-08-19T00:03:17;22.40;61.30
16827;DHT22;8530;49.540;8.576;2022-08-19T00:05:44;22.40;61.30
16827;DHT22;8530;49.540;8.576;2022-08-19T00:08:11;22.40;61.30
16827;DHT22;8530;49.540;8.576;2022-08-19T00:10:39;22.40;61.40
16827;DHT22;8530;49.540;8.576;2022-08-19T00:13:05;22.40;61.40
16827;DHT22;8530;49.540;8.576;2022-08-19T00:15:32;22.40;61.40
16827;DHT22;8530;49.540;8.576;2022-08-19T00:17:59;22.40;61.40
16827;DHT22;8530;49.540;8.576;2022-08-19T00:20:26;22.40;61.50
16827;DHT22;8530;49.540;8.576;2022-08-19T00:22:52;22.40;61.60
16827;DHT22;8530;49.540;8.576;2022-08-19T00:25:19;22.40;61.60
16827;DHT22;8530;49.540;8.576;2022-08-19T00:27:47;22.40;61.60
16827;DHT22;8530;49.540;8.576;2022-08-19T00:30:14;22.40;61.70
16827;DHT22;8530;49.540;8.576;2022-08-19T00:32:41;22.40;61.80
16827;DHT22;8530;49.540;8.576;2022-08-19T00:35:08;22.40;61.80
16827;DHT22;8530;49.540;8.576;2022-08-19T00:37:36;22.40;61.90
16827;DHT22;8530;49.540;8.576;2022-08-19T00:40:04;22.40;62.00
16827;DHT22;8530;49.540;8.576;2022-08-19T00:42:31;22.30;61.90
16827;DHT22;8530;49.540;8.576;2022-08-19T00:44:59;22.30;62.00
16827;DHT22;8530;49.540;8.576;2022-08-19T00:47:26;22.30;62.10
16827;DHT22;8530;49.540;8.576;2022-08-19T00:49:55;22.30;62.20
16827;DHT22;8530;49.540;8.576;2022-08-19T00:52:25;22.30;62.20
16827;DHT22;8530;49.540;8.576;2022-08-19T00:54:55;22.30;62.40
16827;DHT22;8530;49.540;8.576;2022-08-19T00:57:27;22.30;62.50
16827;DHT22;8530;49.540;8.576;2022-08-19T00:59:56;22.30;62.60
16827;DHT22;8530;49.540;8.576;2022-08-19T01:02:27;22.30;62.60
16827;DHT22;8530;49.540;8.576;2022-08-19T01:04:54;22.30;62.70
16827;DHT22;8530;49.540;8.576;2022-08-19T01:07:21;22.30;62.70
16827;DHT22;8530;49.540;8.576;2022-08-19T01:09:47;22.30;62.80
16827;DHT22;8530;49.540;8.576;2022-08-19T01:12:14;22.20;62.80
16827;DHT22;8530;49.540;8.576;2022-08-19T01:14:42;22.20;62.80
16827;DHT22;8530;49.540;8.576;2022-08-19T01:17:10;22.20;62.90
16827;DHT22;8530;49.540;8.576;2022-08-19T01:19:41;22.20;63.00
16827;DHT22;8530;49.540;8.576;2022-08-19T01:22:12;22.20;63.10
16827;DHT22;8530;49.540;8.576;2022-08-19T01:24:42;22.20;63.20
16827;DHT22;8530;49.540;8.576;2022-08-19T01:27:09;22.20;63.30
16827;DHT22;8530;49.540;8.576;2022-08-19T01:29:38;22.20;63.30
16827;DHT22;8530;49.540;8.576;2022-08-19T01:32:06;22.20;63.40
16827;DHT22;8530;49.540;8.576;2022-08-19T01:34:32;22.20;63.50
16827;DHT22;8530;49.540;8.576;2022-08-19T01:37:00;22.20;63.60
16827;DHT22;8530;49.540;8.576;2022-08-19T01:39:34;22.20;63.70
16827;DHT22;8530;49.540;8.576;2022-08-19T01:42:02;22.20;63.70
16827;DHT22;8530;49.540;8.576;2022-08-19T01:44:30;22.20;63.80
16827;DHT22;8530;49.540;8.576;2022-08-19T01:46:57;22.10;63.80
16827;DHT22;8530;49.540;8.576;2022-08-19T01:49:25;22.10;63.90
16827;DHT22;8530;49.540;8.576;2022-08-19T01:51:52;22.10;63.90
16827;DHT22;8530;49.540;8.576;2022-08-19T01:54:20;22.10;64.00
16827;DHT22;8530;49.540;8.576;2022-08-19T01:56:47;22.10;64.00
16827;DHT22;8530;49.540;8.576;2022-08-19T01:59:19;22.10;64.10
16827;DHT22;8530;49.540;8.576;2022-08-19T02:01:46;22.10;64.20
16827;DHT22;8530;49.540;8.576;2022-08-19T02:04:13;22.00;64.20
16827;DHT22;8530;49.540;8.576;2022-08-19T02:06:40;22.00;64.30
16827;DHT22;8530;49.540;8.576;2022-08-19T02:09:07;22.00;64.40
16827;DHT22;8530;49.540;8.576;2022-08-19T02:11:36;21.90;64.30
16827;DHT22;8530;49.540;8.576;2022-08-19T02:14:06;21.90;64.50
16827;DHT22;8530;49.540;8.576;2022-08-19T02:16:35;21.80;64.50
16827;DHT22;8530;49.540;8.576;2022-08-19T02:19:02;21.80;64.70
16827;DHT22;8530;49.540;8.576;2022-08-19T02:21:29;21.70;64.80
16827;DHT22;8530;49.540;8.576;2022-08-19T02:23:57;21.60;64.90
16827;DHT22;8530;49.540;8.576;2022-08-19T02:26:24;21.60;65.20
16827;DHT22;8530;49.540;8.576;2022-08-19T02:28:52;21.50;65.20
16827;DHT22;8530;49.540;8.576;2022-08-19T02:31:21;21.50;65.40
16827;DHT22;8530;49.540;8.576;2022-08-19T02:33:50;21.50;65.70
16827;DHT22;8530;49.540;8.576;2022-08-19T02:36:18;21.40;65.90
16827;DHT22;8530;49.540;8.576;2022-08-19T02:38:45;21.40;66.10
16827;DHT22;8530;49.540;8.576;2022-08-19T02:41:15;21.40;66.30
16827;DHT22;8530;49.540;8.576;2022-08-19T02:43:43;21.50;66.50
16827;DHT22;8530;49.540;8.576;2022-08-19T02:46:14;21.50;66.70
16827;DHT22;8530;49.540;8.576;2022-08-19T02:48:43;21.50;66.80
16827;DHT22;8530;49.540;8.576;2022-08-19T02:51:16;21.50;66.90
16827;DHT22;8530;49.540;8.576;2022-08-19T02:53:43;21.50;67.10
16827;DHT22;8530;49.540;8.576;2022-08-19T02:56:09;21.50;67.20
16827;DHT22;8530;49.540;8.576;2022-08-19T02:58:36;21.50;67.30
16827;DHT22;8530;49.540;8.576;2022-08-19T03:01:03;21.50;67.40
16827;DHT22;8530;49.540;8.576;2022-08-19T03:03:30;21.50;67.60
16827;DHT22;8530;49.540;8.576;2022-08-19T03:06:05;21.50;67.70
16827;DHT22;8530;49.540;8.576;2022-08-19T03:08:33;21.50;67.80
16827;DHT22;8530;49.540;8.576;2022-08-19T03:11:00;21.50;67.90
16827;DHT22;8530;49.540;8.576;2022-08-19T03:13:27;21.50;67.90
16827;DHT22;8530;49.540;8.576;2022-08-19T03:15:54;21.50;68.00
16827;DHT22;8530;49.540;8.576;2022-08-19T03:18:21;21.50;68.20
16827;DHT22;8530;49.540;8.576;2022-08-19T03:20:50;21.50;68.40
16827;DHT22;8530;49.540;8.576;2022-08-19T03:23:18;21.50;68.50
16827;DHT22;8530;49.540;8.576;2022-08-19T03:25:47;21.40;68.50
16827;DHT22;8530;49.540;8.576;2022-08-19T03:28:16;21.40;68.60
16827;DHT22;8530;49.540;8.576;2022-08-19T03:30:55;21.30;68.70
16827;DHT22;8530;49.540;8.576;2022-08-19T03:33:23;21.30;68.80
16827;DHT22;8530;49.540;8.576;2022-08-19T03:36:03;21.20;68.90
16827;DHT22;8530;49.540;8.576;2022-08-19T03:38:30;21.20;69.10
16827;DHT22;8530;49.540;8.576;2022-08-19T03:41:02;21.20;69.30
16827;DHT22;8530;49.540;8.576;2022-08-19T03:43:29;21.10;69.50
16827;DHT22;8530;49.540;8.576;2022-08-19T03:46:06;21.10;69.60
16827;DHT22;8530;49.540;8.576;2022-08-19T03:48:34;21.00;69.90
16827;DHT22;8530;49.540;8.576;2022-08-19T03:51:01;21.00;70.00
16827;DHT22;8530;49.540;8.576;2022-08-19T03:53:29;20.90;70.20
16827;DHT22;8530;49.540;8.576;2022-08-19T03:55:59;20.90;70.40
16827;DHT22;8530;49.540;8.576;2022-08-19T03:58:27;20.80;70.60
16827;DHT22;8530;49.540;8.576;2022-08-19T04:00:56;20.80;70.90
16827;DHT22;8530;49.540;8.576;2022-08-19T04:03:23;20.80;71.10
16827;DHT22;8530;49.540;8.576;2022-08-19T04:05:50;20.80;71.40
16827;DHT22;8530;49.540;8.576;2022-08-19T04:08:17;20.80;71.70
16827;DHT22;8530;49.540;8.576;2022-08-19T04:10:45;20.80;71.90
16827;DHT22;8530;49.540;8.576;2022-08-19T04:13:14;20.80;72.10
16827;DHT22;8530;49.540;8.576;2022-08-19T04:15:43;20.80;72.20
16827;DHT22;8530;49.540;8.576;2022-08-19T04:18:10;20.90;72.50
16827;DHT22;8530;49.540;8.576;2022-08-19T04:20:42;20.90;72.60
16827;DHT22;8530;49.540;8.576;2022-08-19T04:23:09;20.90;72.70
16827;DHT22;8530;49.540;8.576;2022-08-19T04:25:38;20.90;72.80
16827;DHT22;8530;49.540;8.576;2022-08-19T04:28:04;21.00;73.00
16827;DHT22;8530;49.540;8.576;2022-08-19T04:30:38;21.00;73.00
16827;DHT22;8530;49.540;8.576;2022-08-19T04:33:05;21.00;73.20
16827;DHT22;8530;49.540;8.576;2022-08-19T04:35:35;21.00;73.20
16827;DHT22;8530;49.540;8.576;2022-08-19T04:38:03;20.90;73.30
16827;DHT22;8530;49.540;8.576;2022-08-19T04:40:29;20.90;73.40
16827;DHT22;8530;49.540;8.576;2022-08-19T04:43:14;20.90;73.60
16827;DHT22;8530;49.540;8.576;2022-08-19T04:45:42;21.00;73.90
16827;DHT22;8530;49.540;8.576;2022-08-19T04:48:09;21.00;74.00
16827;DHT22;8530;49.540;8.576;2022-08-19T04:50:39;21.10;74.20
16827;DHT22;8530;49.540;8.576;2022-08-19T04:53:06;21.10;74.20
16827;DHT22;8530;49.540;8.576;2022-08-19T04:55:33;21.20;74.20
16827;DHT22;8530;49.540;8.576;2022-08-19T04:58:01;21.20;74.20
16827;DHT22;8530;49.540;8.576;2022-08-19T05:00:28;21.30;74.20
16827;DHT22;8530;49.540;8.576;2022-08-19T05:02:56;21.40;74.30
16827;DHT22;8530;49.540;8.576;2022-08-19T05:05:22;21.40;74.30
16827;DHT22;8530;49.540;8.576;2022-08-19T05:07:49;21.50;74.30
16827;DHT22;8530;49.540;8.576;2022-08-19T05:10:16;21.50;74.20
16827;DHT22;8530;49.540;8.576;2022-08-19T05:12:43;21.60;74.20
16827;DHT22;8530;49.540;8.576;2022-08-19T05:15:12;21.70;74.10
16827;DHT22;8530;49.540;8.576;2022-08-19T05:17:39;21.80;74.00
16827;DHT22;8530;49.540;8.576;2022-08-19T05:20:27;21.90;73.90
16827;DHT22;8530;49.540;8.576;2022-08-19T05:23:12;22.00;73.70
16827;DHT22;8530;49.540;8.576;2022-08-19T05:25:41;22.10;73.50
16827;DHT22;8530;49.540;8.576;2022-08-19T05:28:07;22.10;73.20
16827;DHT22;8530;49.540;8.576;2022-08-19T05:30:34;22.20;73.00
16827;DHT22;8530;49.540;8.576;2022-08-19T05:33:01;22.20;72.80
16827;DHT22;8530;49.540;8.576;2022-08-19T05:35:29;22.30;72.60
16827;DHT22;8530;49.540;8.576;2022-08-19T05:37:56;22.40;72.40
16827;DHT22;8530;49.540;8.576;2022-08-19T05:40:22;22.50;72.10
16827;DHT22;8530;49.540;8.576;2022-08-19T05:42:49;22.60;72.00
16827;DHT22;8530;49.540;8.576;2022-08-19T05:45:17;22.70;71.60
16827;DHT22;8530;49.540;8.576;2022-08-19T05:47:44;22.90;71.40
16827;DHT22;8530;49.540;8.576;2022-08-19T05:50:11;23.10;71.00
16827;DHT22;8530;49.540;8.576;2022-08-19T05:52:39;23.30;70.50
16827;DHT22;8530;49.540;8.576;2022-08-19T05:55:07;23.60;70.00
16827;DHT22;8530;49.540;8.576;2022-08-19T05:57:34;23.90;69.60
16827;DHT22;8530;49.540;8.576;2022-08-19T06:00:00;24.20;69.00
16827;DHT22;8530;49.540;8.576;2022-08-19T06:02:30;24.40;68.20
16827;DHT22;8530;49.540;8.576;2022-08-19T06:04:57;24.70;67.40
16827;DHT22;8530;49.540;8.576;2022-08-19T06:07:23;24.80;66.40
16827;DHT22;8530;49.540;8.576;2022-08-19T06:09:51;25.00;65.60
16827;DHT22;8530;49.540;8.576;2022-08-19T06:12:18;25.00;64.70
16827;DHT22;8530;49.540;8.576;2022-08-19T06:14:45;25.10;64.10
16827;DHT22;8530;49.540;8.576;2022-08-19T06:17:11;25.20;63.40
16827;DHT22;8530;49.540;8.576;2022-08-19T06:19:38;25.40;62.80
16827;DHT22;8530;49.540;8.576;2022-08-19T06:22:06;25.40;62.10
16827;DHT22;8530;49.540;8.576;2022-08-19T06:24:33;25.60;61.50
16827;DHT22;8530;49.540;8.576;2022-08-19T06:27:02;25.70;60.70
16827;DHT22;8530;49.540;8.576;2022-08-19T06:29:30;25.70;59.80
16827;DHT22;8530;49.540;8.576;2022-08-19T06:32:00;25.80;59.30
16827;DHT22;8530;49.540;8.576;2022-08-19T06:34:29;26.00;58.70
16827;DHT22;8530;49.540;8.576;2022-08-19T06:36:58;26.10;58.10
16827;DHT22;8530;49.540;8.576;2022-08-19T06:39:28;26.20;57.50
16827;DHT22;8530;49.540;8.576;2022-08-19T06:41:57;26.40;57.10
16827;DHT22;8530;49.540;8.576;2022-08-19T06:44:29;26.60;56.70
16827;DHT22;8530;49.540;8.576;2022-08-19T06:47:03;26.70;55.90
16827;DHT22;8530;49.540;8.576;2022-08-19T06:49:30;26.90;55.50
16827;DHT22;8530;49.540;8.576;2022-08-19T06:51:57;27.00;54.90
16827;DHT22;8530;49.540;8.576;2022-08-19T06:54:26;27.10;54.30
16827;DHT22;8530;49.540;8.576;2022-08-19T06:56:53;27.20;53.80
16827;DHT22;8530;49.540;8.576;2022-08-19T06:59:22;27.10;53.20
16827;DHT22;8530;49.540;8.576;2022-08-19T07:01:55;26.80;52.70
16827;DHT22;8530;49.540;8.576;2022-08-19T07:04:25;26.40;52.50
16827;DHT22;8530;49.540;8.576;2022-08-19T07:06:57;26.20;52.60
16827;DHT22;8530;49.540;8.576;2022-08-19T07:09:25;26.00;52.90
16827;DHT22;8530;49.540;8.576;2022-08-19T07:11:56;26.00;53.20
16827;DHT22;8530;49.540;8.576;2022-08-19T07:14:24;26.10;53.40
16827;DHT22;8530;49.540;8.576;2022-08-19T07:16:54;26.20;53.30
16827;DHT22;8530;49.540;8.576;2022-08-19T07:19:23;26.40;53.10
16827;DHT22;8530;49.540;8.576;2022-08-19T07:21:52;26.50;52.90
16827;DHT22;8530;49.540;8.576;2022-08-19T07:24:21;26.70;52.60
16827;DHT22;8530;49.540;8.576;2022-08-19T07:26:50;26.70;52.30
16827;DHT22;8530;49.540;8.576;2022-08-19T07:29:18;26.70;52.10
16827;DHT22;8530;49.540;8.576;2022-08-19T07:31:48;26.80;51.90
16827;DHT22;8530;49.540;8.576;2022-08-19T07:34:17;26.80;51.50
16827;DHT22;8530;49.540;8.576;2022-08-19T07:36:44;26.80;51.50
16827;DHT22;8530;49.540;8.576;2022-08-19T07:39:13;26.90;51.40
16827;DHT22;8530;49.540;8.576;2022-08-19T07:41:41;27.00;51.80
16827;DHT22;8530;49.540;8.576;2022-08-19T07:44:08;27.10;51.10
16827;DHT22;8530;49.540;8.576;2022-08-19T07:46:37;27.20;51.00
16827;DHT22;8530;49.540;8.576;2022-08-19T07:49:07;27.20;50.70
16827;DHT22;8530;49.540;8.576;2022-08-19T07:51:35;27.20;50.50
16827;DHT22;8530;49.540;8.576;2022-08-19T07:54:02;27.30;50.50
16827;DHT22;8530;49.540;8.576;2022-08-19T07:56:28;27.70;50.70
16827;DHT22;8530;49.540;8.576;2022-08-19T07:58:55;28.30;50.60
16827;DHT22;8530;49.540;8.576;2022-08-19T08:01:24;29.10;50.00
16827;DHT22;8530;49.540;8.576;2022-08-19T08:04:00;29.80;48.80
16827;DHT22;8530;49.540;8.576;2022-08-19T08:06:45;30.10;47.20
16827;DHT22;8530;49.540;8.576;2022-08-19T08:09:33;30.50;46.40
16827;DHT22;8530;49.540;8.576;2022-08-19T08:12:02;30.70;45.30
16827;DHT22;8530;49.540;8.576;2022-08-19T08:14:33;30.80;44.60
16827;DHT22;8530;49.540;8.576;2022-08-19T08:17:02;31.10;44.00
16827;DHT22;8530;49.540;8.576;2022-08-19T08:19:29;31.20;43.20
16827;DHT22;8530;49.540;8.576;2022-08-19T08:21:59;31.30;42.60
16827;DHT22;8530;49.540;8.576;2022-08-19T08:24:27;31.30;41.90
16827;DHT22;8530;49.540;8.576;2022-08-19T08:26:54;31.40;41.50
16827;DHT22;8530;49.540;8.576;2022-08-19T08:29:21;31.20;41.00
16827;DHT22;8530;49.540;8.576;2022-08-19T08:31:48;30.90;40.90
16827;DHT22;8530;49.540;8.576;2022-08-19T08:34:15;31.20;41.00
16827;DHT22;8530;49.540;8.576;2022-08-19T08:36:44;31.80;40.70
16827;DHT22;8530;49.540;8.576;2022-08-19T08:39:13;32.20;39.80
16827;DHT22;8530;49.540;8.576;2022-08-19T08:41:46;32.60;38.90
16827;DHT22;8530;49.540;8.576;2022-08-19T08:44:17;32.70;38.20
16827;DHT22;8530;49.540;8.576;2022-08-19T08:46:48;32.70;37.80
16827;DHT22;8530;49.540;8.576;2022-08-19T08:49:26;32.50;37.70
16827;DHT22;8530;49.540;8.576;2022-08-19T08:52:00;32.30;37.70
16827;DHT22;8530;49.540;8.576;2022-08-19T08:54:35;32.20;38.00
16827;DHT22;8530;49.540;8.576;2022-08-19T08:57:05;32.10;37.20
16827;DHT22;8530;49.540;8.576;2022-08-19T08:59:36;32.20;37.00
16827;DHT22;8530;49.540;8.576;2022-08-19T09:02:04;32.20;36.60
16827;DHT22;8530;49.540;8.576;2022-08-19T09:04:30;32.30;36.60
16827;DHT22;8530;49.540;8.576;2022-08-19T09:07:06;32.40;36.20
16827;DHT22;8530;49.540;8.576;2022-08-19T09:09:42;32.30;35.80
16827;DHT22;8530;49.540;8.576;2022-08-19T09:12:14;32.10;35.70
16827;DHT22;8530;49.540;8.576;2022-08-19T09:14:48;32.00;35.60
16827;DHT22;8530;49.540;8.576;2022-08-19T09:17:16;31.70;35.70
16827;DHT22;8530;49.540;8.576;2022-08-19T09:19:56;31.70;35.80
16827;DHT22;8530;49.540;8.576;2022-08-19T09:22:23;31.60;35.70
16827;DHT22;8530;49.540;8.576;2022-08-19T09:24:54;31.50;35.70
16827;DHT22;8530;49.540;8.576;2022-08-19T09:27:22;31.30;35.70
16827;DHT22;8530;49.540;8.576;2022-08-19T09:29:50;31.40;35.80
16827;DHT22;8530;49.540;8.576;2022-08-19T09:32:17;31.50;35.60
16827;DHT22;8530;49.540;8.576;2022-08-19T09:34:44;31.60;35.60
16827;DHT22;8530;49.540;8.576;2022-08-19T09:37:11;31.40;35.60
16827;DHT22;8530;49.540;8.576;2022-08-19T09:39:39;31.30;35.70
16827;DHT22;8530;49.540;8.576;2022-08-19T09:42:07;31.20;35.80
16827;DHT22;8530;49.540;8.576;2022-08-19T09:44:37;31.10;35.90
16827;DHT22;8530;49.540;8.576;2022-08-19T09:47:04;31.20;35.90
16827;DHT22;8530;49.540;8.576;2022-08-19T09:49:32;31.20;35.90
16827;DHT22;8530;49.540;8.576;2022-08-19T09:51:59;31.30;35.90
16827;DHT22;8530;49.540;8.576;2022-08-19T09:54:26;31.30;35.80
16827;DHT22;8530;49.540;8.576;2022-08-19T09:56:54;31.00;35.60
16827;DHT22;8530;49.540;8.576;2022-08-19T09:59:23;30.70;35.80
16827;DHT22;8530;49.540;8.576;2022-08-19T10:01:50;30.70;35.90
16827;DHT22;8530;49.540;8.576;2022-08-19T10:04:17;30.70;35.70
16827;DHT22;8530;49.540;8.576;2022-08-19T10:06:45;30.50;35.70
16827;DHT22;8530;49.540;8.576;2022-08-19T10:09:14;30.40;35.90
16827;DHT22;8530;49.540;8.576;2022-08-19T10:11:42;30.60;36.00
16827;DHT22;8530;49.540;8.576;2022-08-19T10:14:11;30.60;35.70
16827;DHT22;8530;49.540;8.576;2022-08-19T10:16:41;30.30;35.60
16827;DHT22;8530;49.540;8.576;2022-08-19T10:19:08;30.20;35.90
16827;DHT22;8530;49.540;8.576;2022-08-19T10:21:38;30.00;35.70
16827;DHT22;8530;49.540;8.576;2022-08-19T10:24:05;30.10;35.80
16827;DHT22;8530;49.540;8.576;2022-08-19T10:26:34;30.40;35.80
16827;DHT22;8530;49.540;8.576;2022-08-19T10:29:03;30.50;35.40
16827;DHT22;8530;49.540;8.576;2022-08-19T10:31:32;30.70;35.10
16827;DHT22;8530;49.540;8.576;2022-08-19T10:34:01;31.00;34.70
16827;DHT22;8530;49.540;8.576;2022-08-19T10:36:29;31.10;34.50
16827;DHT22;8530;49.540;8.576;2022-08-19T10:38:58;31.10;34.40
16827;DHT22;8530;49.540;8.576;2022-08-19T10:41:28;31.20;34.20
16827;DHT22;8530;49.540;8.576;2022-08-19T10:43:57;31.20;34.10
16827;DHT22;8530;49.540;8.576;2022-08-19T10:46:26;31.20;34.10
16827;DHT22;8530;49.540;8.576;2022-08-19T10:48:56;31.10;33.90
16827;DHT22;8530;49.540;8.576;2022-08-19T10:51:24;30.80;34.10
16827;DHT22;8530;49.540;8.576;2022-08-19T10:54:09;30.60;34.40
16827;DHT22;8530;49.540;8.576;2022-08-19T10:56:36;30.80;34.60
16827;DHT22;8530;49.540;8.576;2022-08-19T10:59:22;31.00;34.50
16827;DHT22;8530;49.540;8.576;2022-08-19T11:01:50;31.00;34.40
16827;DHT22;8530;49.540;8.576;2022-08-19T11:04:18;30.80;34.40
16827;DHT22;8530;49.540;8.576;2022-08-19T11:06:48;30.50;34.50
16827;DHT22;8530;49.540;8.576;2022-08-19T11:09:15;30.10;34.80
16827;DHT22;8530;49.540;8.576;2022-08-19T11:11:43;29.90;35.20
16827;DHT22;8530;49.540;8.576;2022-08-19T11:14:13;29.80;35.50
16827;DHT22;8530;49.540;8.576;2022-08-19T11:16:41;29.70;35.60
16827;DHT22;8530;49.540;8.576;2022-08-19T11:19:10;29.90;35.60
16827;DHT22;8530;49.540;8.576;2022-08-19T11:21:40;30.00;35.00
16827;DHT22;8530;49.540;8.576;2022-08-19T11:24:10;30.20;34.70
16827;DHT22;8530;49.540;8.576;2022-08-19T11:26:38;30.50;34.50
16827;DHT22;8530;49.540;8.576;2022-08-19T11:29:07;30.80;34.30
16827;DHT22;8530;49.540;8.576;2022-08-19T11:31:38;31.10;34.00
16827;DHT22;8530;49.540;8.576;2022-08-19T11:34:09;31.10;33.80
16827;DHT22;8530;49.540;8.576;2022-08-19T11:36:38;30.90;33.70
16827;DHT22;8530;49.540;8.576;2022-08-19T11:39:05;30.80;33.80
16827;DHT22;8530;49.540;8.576;2022-08-19T11:41:34;30.90;33.80
16827;DHT22;8530;49.540;8.576;2022-08-19T11:44:00;31.00;33.60
16827;DHT22;8530;49.540;8.576;2022-08-19T11:46:28;30.80;33.50
16827;DHT22;8530;49.540;8.576;2022-08-19T11:48:55;30.60;33.60
16827;DHT22;8530;49.540;8.576;2022-08-19T11:51:23;30.60;33.80
16827;DHT22;8530;49.540;8.576;2022-08-19T11:53:51;30.50;33.80
16827;DHT22;8530;49.540;8.576;2022-08-19T11:56:19;30.30;33.90
16827;DHT22;8530;49.540;8.576;2022-08-19T11:58:48;30.40;34.20
16827;DHT22;8530;49.540;8.576;2022-08-19T12:01:17;30.80;34.00
16827;DHT22;8530;49.540;8.576;2022-08-19T12:03:45;31.20;33.80
16827;DHT22;8530;49.540;8.576;2022-08-19T12:06:13;31.40;33.40
16827;DHT22;8530;49.540;8.576;2022-08-19T12:08:41;31.50;33.20
16827;DHT22;8530;49.540;8.576;2022-08-19T12:11:11;31.30;33.10
16827;DHT22;8530;49.540;8.576;2022-08-19T12:13:38;31.20;33.20
16827;DHT22;8530;49.540;8.576;2022-08-19T12:16:09;31.30;33.00
16827;DHT22;8530;49.540;8.576;2022-08-19T12:18:38;31.30;32.60
16827;DHT22;8530;49.540;8.576;2022-08-19T12:21:08;31.30;33.00
16827;DHT22;8530;49.540;8.576;2022-08-19T12:23:36;31.50;32.40
16827;DHT22;8530;49.540;8.576;2022-08-19T12:26:03;31.60;32.10
16827;DHT22;8530;49.540;8.576;2022-08-19T12:28:30;31.80;31.80
16827;DHT22;8530;49.540;8.576;2022-08-19T12:30:57;31.80;31.50
16827;DHT22;8530;49.540;8.576;2022-08-19T12:33:25;31.60;31.20
16827;DHT22;8530;49.540;8.576;2022-08-19T12:35:54;31.60;31.10
16827;DHT22;8530;49.540;8.576;2022-08-19T12:38:21;31.80;31.10
16827;DHT22;8530;49.540;8.576;2022-08-19T12:40:49;31.70;30.90
16827;DHT22;8530;49.540;8.576;2022-08-19T12:43:17;31.70;30.90
16827;DHT22;8530;49.540;8.576;2022-08-19T12:45:45;31.70;30.90
16827;DHT22;8530;49.540;8.576;2022-08-19T12:48:12;31.70;30.70
16827;DHT22;8530;49.540;8.576;2022-08-19T12:50:41;31.50;30.50
16827;DHT22;8530;49.540;8.576;2022-08-19T12:53:08;31.20;30.70
16827;DHT22;8530;49.540;8.576;2022-08-19T12:55:34;30.90;30.70
16827;DHT22;8530;49.540;8.576;2022-08-19T12:58:01;30.80;31.00
16827;DHT22;8530;49.540;8.576;2022-08-19T13:00:28;31.00;31.00
16827;DHT22;8530;49.540;8.576;2022-08-19T13:02:56;31.10;30.80
16827;DHT22;8530;49.540;8.576;2022-08-19T13:05:26;31.50;30.70
16827;DHT22;8530;49.540;8.576;2022-08-19T13:07:56;31.80;30.40
16827;DHT22;8530;49.540;8.576;2022-08-19T13:10:27;31.80;30.20
16827;DHT22;8530;49.540;8.576;2022-08-19T13:12:55;31.80;30.00
16827;DHT22;8530;49.540;8.576;2022-08-19T13:15:25;31.70;30.00
16827;DHT22;8530;49.540;8.576;2022-08-19T13:17:54;31.30;29.80
16827;DHT22;8530;49.540;8.576;2022-08-19T13:20:21;31.00;29.90
16827;DHT22;8530;49.540;8.576;2022-08-19T13:22:48;30.80;30.10
16827;DHT22;8530;49.540;8.576;2022-08-19T13:25:17;30.90;30.20
16827;DHT22;8530;49.540;8.576;2022-08-19T13:27:46;31.00;30.10
16827;DHT22;8530;49.540;8.576;2022-08-19T13:30:15;31.40;30.00
16827;DHT22;8530;49.540;8.576;2022-08-19T13:32:59;31.80;29.80
16827;DHT22;8530;49.540;8.576;2022-08-19T13:35:40;32.40;29.30
16827;DHT22;8530;49.540;8.576;2022-08-19T13:38:07;32.90;29.00
16827;DHT22;8530;49.540;8.576;2022-08-19T13:40:36;33.10;28.60
16827;DHT22;8530;49.540;8.576;2022-08-19T13:43:04;33.00;28.00
16827;DHT22;8530;49.540;8.576;2022-08-19T13:45:32;32.60;27.80
16827;DHT22;8530;49.540;8.576;2022-08-19T13:48:01;32.30;27.90
16827;DHT22;8530;49.540;8.576;2022-08-19T13:50:32;32.20;27.90
16827;DHT22;8530;49.540;8.576;2022-08-19T13:53:01;32.40;27.90
16827;DHT22;8530;49.540;8.576;2022-08-19T13:55:30;32.60;27.50
16827;DHT22;8530;49.540;8.576;2022-08-19T13:57:59;32.90;27.30
16827;DHT22;8530;49.540;8.576;2022-08-19T14:00:29;33.20;27.20
16827;DHT22;8530;49.540;8.576;2022-08-19T14:02:56;33.40;26.90
16827;DHT22;8530;49.540;8.576;2022-08-19T14:05:25;33.60;26.70
16827;DHT22;8530;49.540;8.576;2022-08-19T14:07:52;33.70;26.40
16827;DHT22;8530;49.540;8.576;2022-08-19T14:10:20;33.70;26.20
16827;DHT22;8530;49.540;8.576;2022-08-19T14:12:47;33.60;26.10
16827;DHT22;8530;49.540;8.576;2022-08-19T14:15:15;33.60;26.20
16827;DHT22;8530;49.540;8.576;2022-08-19T14:17:44;33.40;26.10
16827;DHT22;8530;49.540;8.576;2022-08-19T14:20:13;33.30;26.00
16827;DHT22;8530;49.540;8.576;2022-08-19T14:22:41;33.30;26.00
16827;DHT22;8530;49.540;8.576;2022-08-19T14:25:10;33.40;25.80
16827;DHT22;8530;49.540;8.576;2022-08-19T14:27:39;33.60;25.60
16827;DHT22;8530;49.540;8.576;2022-08-19T14:30:08;33.80;25.50
16827;DHT22;8530;49.540;8.576;2022-08-19T14:32:36;33.90;25.30
16827;DHT22;8530;49.540;8.576;2022-08-19T14:35:04;33.90;25.20
16827;DHT22;8530;49.540;8.576;2022-08-19T14:37:33;33.90;25.10
16827;DHT22;8530;49.540;8.576;2022-08-19T14:40:00;33.90;24.90
16827;DHT22;8530;49.540;8.576;2022-08-19T14:42:27;33.60;24.80
16827;DHT22;8530;49.540;8.576;2022-08-19T14:44:57;33.60;25.00
16827;DHT22;8530;49.540;8.576;2022-08-19T14:47:24;33.50;25.00
16827;DHT22;8530;49.540;8.576;2022-08-19T14:49:52;33.60;25.10
16827;DHT22;8530;49.540;8.576;2022-08-19T14:52:18;33.70;25.00
16827;DHT22;8530;49.540;8.576;2022-08-19T14:54:45;33.80;24.80
16827;DHT22;8530;49.540;8.576;2022-08-19T14:57:12;34.00;24.70
16827;DHT22;8530;49.540;8.576;2022-08-19T14:59:40;34.10;24.50
16827;DHT22;8530;49.540;8.576;2022-08-19T15:02:07;34.20;24.40
16827;DHT22;8530;49.540;8.576;2022-08-19T15:04:34;34.30;24.30
16827;DHT22;8530;49.540;8.576;2022-08-19T15:07:02;34.30;24.00
16827;DHT22;8530;49.540;8.576;2022-08-19T15:09:29;34.20;24.10
16827;DHT22;8530;49.540;8.576;2022-08-19T15:11:56;34.00;24.00
16827;DHT22;8530;49.540;8.576;2022-08-19T15:14:24;33.90;24.10
16827;DHT22;8530;49.540;8.576;2022-08-19T15:16:51;33.80;24.20
16827;DHT22;8530;49.540;8.576;2022-08-19T15:19:17;33.80;24.10
16827;DHT22;8530;49.540;8.576;2022-08-19T15:21:44;33.80;24.20
16827;DHT22;8530;49.540;8.576;2022-08-19T15:24:12;33.70;24.00
16827;DHT22;8530;49.540;8.576;2022-08-19T15:26:39;33.60;23.90
16827;DHT22;8530;49.540;8.576;2022-08-19T15:29:06;33.40;23.90
16827;DHT22;8530;49.540;8.576;2022-08-19T15:31:32;33.10;23.90
16827;DHT22;8530;49.540;8.576;2022-08-19T15:34:01;33.00;24.00
16827;DHT22;8530;49.540;8.576;2022-08-19T15:36:28;32.90;24.00
16827;DHT22;8530;49.540;8.576;2022-08-19T15:38:55;32.80;24.10
16827;DHT22;8530;49.540;8.576;2022-08-19T15:41:26;32.80;24.10
16827;DHT22;8530;49.540;8.576;2022-08-19T15:43:55;32.80;24.10
16827;DHT22;8530;49.540;8.576;2022-08-19T15:46:25;32.70;24.00
16827;DHT22;8530;49.540;8.576;2022-08-19T15:48:53;32.50;24.10
16827;DHT22;8530;49.540;8.576;2022-08-19T15:51:21;32.30;24.30
16827;DHT22;8530;49.540;8.576;2022-08-19T15:53:48;32.20;24.40